Time;durP1;ratioP1;P1;durP2;ratioP2;P2;SDS_P1;SDS_P2;PMS_P1;PMS_P2;Temp;Humidity;BMP_temperature;BMP_pressure;BME280_temperature;BME280_humidity;BME280_pressure;Samples;Min_cycle;Max_cycle;Signal;HPM_P1;HPM_P2
2022/08/04 00:02:24;;;;;;;22.70;9.02;;;;;;;;;;4919281;29;20027;-79
2022/08/04 00:05:03;;;;;;;15.27;9.45;;;;;;;;;;4875263;29;20032;-79
2022/08/04 00:07:47;;;;;;;22.10;9.07;;;;;;;;;;4932236;29;20532;-80
2022/08/04 00:10:13;;;;;;;22.85;9.02;;;;;;;;;;4872298;29;20130;-79
2022/08/04 00:12:44;;;;;;;20.58;10.80;;;;;;;;;;4918461;29;20078;-79
2022/08/04 00:15:10;;;;;;;19.25;9.20;;;;;;;;;;4898728;29;20043;-79
2022/08/04 00:17:38;;;;;;;22.50;9.93;;;;;;;;;;4949402;29;20058;-78
2022/08/04 00:20:05;;;;;;;16.20;9.30;;;;;;;;;;4917737;29;20032;-78
2022/08/04 00:22:31;;;;;;;18.27;9.60;;;;;;;;;;4916920;29;20060;-78
2022/08/04 00:24:56;;;;;;;18.05;9.88;;;;;;;;;;4933983;29;20028;-77
2022/08/04 00:27:22;;;;;;;17.45;9.63;;;;;;;;;;4934016;29;20555;-79
2022/08/04 00:29:47;;;;;;;20.55;9.27;;;;;;;;;;4950090;28;20028;-79
2022/08/04 00:32:13;;;;;;;19.92;9.48;;;;;;;;;;4902893;29;20098;-78
2022/08/04 00:34:38;;;;;;;14.82;9.35;;;;;;;;;;4916268;29;20127;-77
2022/08/04 00:37:05;;;;;;;22.83;10.57;;;;;;;;;;4918291;29;20102;-79
2022/08/04 00:39:30;;;;;;;19.92;10.63;;;;;;;;;;4917411;29;20135;-77
2022/08/04 00:42:14;;;;;;;19.98;11.10;;;;;;;;;;4917684;29;20122;-79
2022/08/04 00:44:58;;;;;;;21.63;11.02;;;;;;;;;;4933448;29;20601;-79
2022/08/04 00:48:02;;;;;;;21.25;10.32;;;;;;;;;;4949130;29;20087;-79
2022/08/04 00:50:33;;;;;;;18.48;9.70;;;;;;;;;;4929375;29;20067;-78
2022/08/04 00:53:24;;;;;;;20.20;10.73;;;;;;;;;;4933314;29;20032;-78
2022/08/04 00:56:09;;;;;;;20.00;10.80;;;;;;;;;;4933480;29;20031;-78
2022/08/04 00:58:41;;;;;;;23.77;11.02;;;;;;;;;;4930971;29;20063;-79
2022/08/04 01:01:17;;;;;;;24.50;10.55;;;;;;;;;;4915721;29;20036;-78
2022/08/04 01:03:56;;;;;;;27.20;11.77;;;;;;;;;;4901463;29;20027;-79
2022/08/04 01:06:37;;;;;;;25.90;12.48;;;;;;;;;;4917185;29;20039;-78
2022/08/04 01:09:29;;;;;;;22.80;12.27;;;;;;;;;;4901495;29;20098;-79
2022/08/04 01:12:15;;;;;;;20.73;11.32;;;;;;;;;;4934271;29;20050;-79
2022/08/04 01:15:20;;;;;;;17.40;12.60;;;;;;;;;;4930924;29;20086;-78
2022/08/04 01:18:05;;;;;;;20.48;12.43;;;;;;;;;;4916857;29;20492;-78
2022/08/04 01:20:54;;;;;;;22.73;12.50;;;;;;;;;;4899483;29;20552;-79
2022/08/04 01:23:34;;;;;;;21.08;11.77;;;;;;;;;;4894929;29;20039;-79
2022/08/04 01:26:44;;;;;;;16.52;10.88;;;;;;;;;;4954570;28;20020;-77
2022/08/04 01:29:13;;;;;;;20.63;11.18;;;;;;;;;;4923246;29;20030;-77
2022/08/04 01:31:41;;;;;;;22.63;11.65;;;;;;;;;;4931491;29;20024;-76
2022/08/04 01:34:10;;;;;;;23.10;12.45;;;;;;;;;;4884246;29;20032;-77
2022/08/04 01:36:35;;;;;;;23.92;12.75;;;;;;;;;;4927675;29;20031;-78
2022/08/04 01:41:45;;;;;;;23.52;13.40;;;;;;;;;;4917737;29;20114;-78
2022/08/04 01:44:11;;;;;;;24.08;13.00;;;;;;;;;;4916465;29;20111;-77
2022/08/04 01:46:36;;;;;;;24.38;12.05;;;;;;;;;;4914832;29;20031;-77
2022/08/04 01:49:01;;;;;;;23.08;14.25;;;;;;;;;;4898639;29;20114;-78
2022/08/04 01:51:29;;;;;;;29.13;13.43;;;;;;;;;;4948212;29;20051;-79
2022/08/04 01:53:54;;;;;;;21.95;12.00;;;;;;;;;;4932017;29;20257;-77
2022/08/04 01:56:20;;;;;;;23.45;12.98;;;;;;;;;;4915941;29;20081;-79
2022/08/04 01:58:45;;;;;;;22.85;12.57;;;;;;;;;;4932634;29;20070;-77
2022/08/04 02:01:11;;;;;;;18.05;12.30;;;;;;;;;;4883976;29;20062;-78
2022/08/04 02:03:39;;;;;;;23.73;13.13;;;;;;;;;;4884659;29;20063;-77
2022/08/04 02:06:23;;;;;;;23.20;14.43;;;;;;;;;;4914747;29;20036;-78
2022/08/04 02:09:29;;;;;;;21.35;13.63;;;;;;;;;;4933104;29;20043;-78
2022/08/04 02:11:57;;;;;;;24.13;14.85;;;;;;;;;;4929540;29;20481;-78
2022/08/04 02:14:40;;;;;;;33.53;15.88;;;;;;;;;;4916190;29;20412;-78
2022/08/04 02:17:14;;;;;;;28.88;16.52;;;;;;;;;;4901168;29;20035;-78
2022/08/04 02:20:05;;;;;;;20.80;15.05;;;;;;;;;;4947413;28;20024;-78
2022/08/04 02:22:32;;;;;;;30.00;17.23;;;;;;;;;;4925026;29;20035;-79
2022/08/04 02:25:06;;;;;;;28.70;15.32;;;;;;;;;;4895367;29;20039;-79
2022/08/04 02:27:44;;;;;;;26.63;15.38;;;;;;;;;;4900818;29;20031;-79
2022/08/04 02:30:10;;;;;;;29.83;15.43;;;;;;;;;;4897389;29;20058;-79
2022/08/04 02:32:38;;;;;;;26.90;15.73;;;;;;;;;;4900054;29;20503;-80
2022/08/04 02:35:34;;;;;;;30.73;16.25;;;;;;;;;;4917112;29;20511;-79
2022/08/04 02:38:26;;;;;;;23.27;15.20;;;;;;;;;;4900110;29;20040;-80
2022/08/04 02:40:53;;;;;;;22.00;15.05;;;;;;;;;;4930654;29;20043;-79
2022/08/04 02:43:19;;;;;;;22.55;16.77;;;;;;;;;;4901303;29;20395;-78
2022/08/04 02:45:44;;;;;;;27.90;15.98;;;;;;;;;;4931621;29;20076;-78
2022/08/04 02:48:09;;;;;;;22.55;14.70;;;;;;;;;;4915526;29;20496;-80
2022/08/04 02:50:35;;;;;;;25.95;17.30;;;;;;;;;;4910719;29;20098;-79
2022/08/04 02:53:01;;;;;;;26.48;16.63;;;;;;;;;;4933443;29;20074;-78
2022/08/04 02:55:28;;;;;;;28.05;15.02;;;;;;;;;;4933364;29;20400;-78
2022/08/04 02:57:53;;;;;;;22.67;15.07;;;;;;;;;;4897765;29;20061;-79
2022/08/04 03:00:20;;;;;;;21.90;14.60;;;;;;;;;;4915735;29;20507;-79
2022/08/04 03:02:52;;;;;;;22.77;14.45;;;;;;;;;;4900311;29;20046;-79
2022/08/04 03:05:20;;;;;;;21.35;14.68;;;;;;;;;;4912007;29;20115;-79
2022/08/04 03:08:09;;;;;;;24.20;15.60;;;;;;;;;;4931679;29;20046;-79
2022/08/04 03:11:09;;;;;;;28.70;16.52;;;;;;;;;;4933464;29;20036;-79
2022/08/04 03:13:43;;;;;;;21.52;13.40;;;;;;;;;;4929394;29;20028;-79
2022/08/04 03:16:30;;;;;;;27.65;14.75;;;;;;;;;;4936058;29;20473;-79
2022/08/04 03:19:23;;;;;;;25.15;14.35;;;;;;;;;;4918875;29;20500;-79
2022/08/04 03:22:26;;;;;;;25.55;14.13;;;;;;;;;;4935726;29;20036;-79
2022/08/04 03:25:04;;;;;;;26.65;15.07;;;;;;;;;;4937289;29;20044;-80
2022/08/04 03:27:39;;;;;;;26.02;15.43;;;;;;;;;;4936431;29;20032;-79
2022/08/04 03:30:13;;;;;;;27.55;13.95;;;;;;;;;;4952079;28;20051;-79
2022/08/04 03:33:08;;;;;;;23.90;13.23;;;;;;;;;;4910018;29;20036;-79
2022/08/04 03:35:48;;;;;;;25.35;13.68;;;;;;;;;;4934789;29;20051;-79
2022/08/04 03:38:31;;;;;;;21.55;14.10;;;;;;;;;;4930760;29;20547;-79
2022/08/04 03:41:34;;;;;;;17.83;13.32;;;;;;;;;;4918940;29;20523;-78
2022/08/04 03:44:12;;;;;;;17.52;12.85;;;;;;;;;;4934299;29;20095;-78
2022/08/04 03:46:56;;;;;;;20.98;13.05;;;;;;;;;;4933909;29;20534;-78
2022/08/04 03:49:58;;;;;;;23.42;13.20;;;;;;;;;;4919028;29;20547;-79
2022/08/04 03:55:47;;;;;;;22.10;10.95;;;;;;;;;;4930379;29;20040;-76
2022/08/04 03:58:49;;;;;;;22.98;11.73;;;;;;;;;;4928804;29;20035;-76
2022/08/04 04:01:33;;;;;;;15.75;12.00;;;;;;;;;;4932229;29;20047;-77
2022/08/04 04:04:05;;;;;;;28.17;13.73;;;;;;;;;;4945984;29;20044;-77
2022/08/04 04:06:52;;;;;;;20.08;12.30;;;;;;;;;;4927136;29;20123;-76
2022/08/04 04:09:55;;;;;;;23.27;13.32;;;;;;;;;;4929666;29;20036;-77
2022/08/04 04:12:55;;;;;;;21.65;13.43;;;;;;;;;;4893232;29;20052;-77
2022/08/04 04:15:44;;;;;;;25.90;12.82;;;;;;;;;;4866913;29;20054;-77
2022/08/04 04:18:25;;;;;;;23.55;13.35;;;;;;;;;;4891929;29;20499;-77
2022/08/04 04:21:14;;;;;;;20.98;13.30;;;;;;;;;;4927821;29;20526;-77
2022/08/04 04:23:59;;;;;;;19.65;14.98;;;;;;;;;;4917511;29;20024;-77
2022/08/04 04:26:31;;;;;;;23.48;15.23;;;;;;;;;;4915914;29;20046;-77
2022/08/04 04:29:02;;;;;;;18.58;12.95;;;;;;;;;;4921809;29;20042;-77
2022/08/04 04:32:22;;;;;;;32.80;14.90;;;;;;;;;;4915167;29;20111;-77
2022/08/04 04:35:02;;;;;;;22.60;12.60;;;;;;;;;;4891651;29;20096;-77
2022/08/04 04:37:43;;;;;;;26.13;12.77;;;;;;;;;;4927226;29;20039;-78
2022/08/04 04:40:17;;;;;;;24.17;12.25;;;;;;;;;;4942339;29;20040;-84
2022/08/04 04:43:13;;;;;;;23.60;11.40;;;;;;;;;;4927151;29;20035;-84
2022/08/04 04:45:49;;;;;;;20.00;12.23;;;;;;;;;;4933582;29;20500;-84
2022/08/04 04:48:30;;;;;;;19.92;11.77;;;;;;;;;;4901980;29;20058;-84
2022/08/04 04:51:28;;;;;;;17.88;10.77;;;;;;;;;;4932657;29;20031;-83
2022/08/04 04:54:05;;;;;;;18.83;11.82;;;;;;;;;;4902405;29;20075;-83
2022/08/04 04:56:37;;;;;;;19.75;12.32;;;;;;;;;;4919132;29;20511;-82
2022/08/04 04:59:02;;;;;;;24.20;14.13;;;;;;;;;;4916959;29;20075;-83
2022/08/04 05:01:39;;;;;;;22.92;14.98;;;;;;;;;;4902291;29;20043;-82
2022/08/04 05:04:08;;;;;;;22.25;14.80;;;;;;;;;;4917732;29;20032;-82
2022/08/04 05:07:06;;;;;;;24.67;14.93;;;;;;;;;;4917461;29;20031;-82
2022/08/04 05:09:53;;;;;;;19.45;14.55;;;;;;;;;;4945794;29;20494;-82
2022/08/04 05:12:42;;;;;;;22.15;14.95;;;;;;;;;;4927813;29;20046;-82
2022/08/04 05:15:07;;;;;;;20.25;15.18;;;;;;;;;;4910460;29;20031;-83
2022/08/04 05:17:35;;;;;;;15.82;13.50;;;;;;;;;;4914945;29;20122;-83
2022/08/04 05:20:02;;;;;;;20.45;14.18;;;;;;;;;;4915066;29;20023;-82
2022/08/04 05:22:44;;;;;;;20.42;13.80;;;;;;;;;;4934096;29;20041;-83
2022/08/04 05:25:19;;;;;;;22.67;14.52;;;;;;;;;;4917015;29;20403;-83
2022/08/04 05:27:49;;;;;;;23.95;13.40;;;;;;;;;;4932767;29;20083;-84
2022/08/04 05:30:14;;;;;;;23.25;12.93;;;;;;;;;;4933024;29;20570;-83
2022/08/04 05:32:47;;;;;;;27.98;14.63;;;;;;;;;;4918126;29;20072;-83
2022/08/04 05:35:15;;;;;;;21.27;14.23;;;;;;;;;;4901256;29;20042;-83
2022/08/04 05:37:41;;;;;;;24.40;13.50;;;;;;;;;;4917682;29;20043;-84
2022/08/04 05:40:07;;;;;;;18.75;12.68;;;;;;;;;;4900952;29;20079;-83
2022/08/04 05:42:36;;;;;;;22.48;14.20;;;;;;;;;;4918983;29;20458;-84
2022/08/04 05:45:01;;;;;;;23.55;14.65;;;;;;;;;;4917532;29;20043;-83
2022/08/04 05:47:27;;;;;;;20.00;15.10;;;;;;;;;;4902653;29;20043;-84
2022/08/04 05:49:53;;;;;;;20.75;14.48;;;;;;;;;;4918103;29;20035;-83
2022/08/04 05:52:18;;;;;;;21.35;14.30;;;;;;;;;;4926240;29;20023;-83
2022/08/04 05:54:43;;;;;;;19.48;13.57;;;;;;;;;;4950709;28;20055;-83
2022/08/04 05:57:09;;;;;;;19.45;12.95;;;;;;;;;;4902274;29;20028;-84
2022/08/04 05:59:37;;;;;;;18.60;12.90;;;;;;;;;;4917466;29;20024;-84
2022/08/04 06:02:03;;;;;;;17.05;11.88;;;;;;;;;;4909452;29;20023;-83
2022/08/04 06:04:36;;;;;;;26.33;15.50;;;;;;;;;;4902158;29;20031;-84
2022/08/04 06:07:02;;;;;;;23.02;12.52;;;;;;;;;;4910779;29;20035;-84
2022/08/04 06:09:28;;;;;;;15.50;12.40;;;;;;;;;;4900947;29;20083;-84
2022/08/04 06:11:54;;;;;;;19.00;12.43;;;;;;;;;;4916454;29;20032;-84
2022/08/04 06:14:19;;;;;;;20.45;12.90;;;;;;;;;;4932504;29;20514;-83
2022/08/04 06:16:45;;;;;;;19.02;12.48;;;;;;;;;;4932049;29;20122;-81
2022/08/04 06:19:12;;;;;;;24.65;12.13;;;;;;;;;;4947441;29;20077;-83
2022/08/04 06:21:40;;;;;;;24.67;13.25;;;;;;;;;;4932083;29;20424;-83
2022/08/04 06:24:09;;;;;;;18.77;13.18;;;;;;;;;;4931265;29;20507;-84
2022/08/04 06:26:34;;;;;;;18.98;11.60;;;;;;;;;;4897079;29;20028;-83
2022/08/04 06:29:01;;;;;;;17.63;11.38;;;;;;;;;;4926035;29;20047;-83
2022/08/04 06:31:42;;;;;;;20.08;10.90;;;;;;;;;;4915581;29;20435;-83
2022/08/04 06:34:08;;;;;;;20.27;12.02;;;;;;;;;;4916613;29;20036;-85
2022/08/04 06:36:36;;;;;;;15.02;11.15;;;;;;;;;;4948799;29;20027;-82
2022/08/04 06:39:02;;;;;;;16.98;10.60;;;;;;;;;;4916386;29;20056;-83
2022/08/04 06:41:28;;;;;;;35.92;11.40;;;;;;;;;;4932884;29;20055;-83
2022/08/04 06:43:53;;;;;;;17.95;10.68;;;;;;;;;;4917227;29;20500;-83
2022/08/04 06:46:19;;;;;;;29.40;12.40;;;;;;;;;;4904607;29;20365;-83
2022/08/04 06:48:44;;;;;;;29.15;10.88;;;;;;;;;;4936642;29;20075;-83
2022/08/04 06:51:11;;;;;;;26.58;10.48;;;;;;;;;;4927724;29;20071;-83
2022/08/04 06:53:37;;;;;;;21.63;10.30;;;;;;;;;;4936663;29;20034;-83
2022/08/04 06:56:02;;;;;;;20.27;9.20;;;;;;;;;;4937387;29;20063;-83
2022/08/04 06:58:30;;;;;;;16.55;9.48;;;;;;;;;;4919409;29;20027;-83
2022/08/04 07:01:00;;;;;;;22.98;9.20;;;;;;;;;;4888450;29;20045;-84
2022/08/04 07:03:27;;;;;;;16.08;8.45;;;;;;;;;;4920382;29;20071;-83
2022/08/04 07:05:52;;;;;;;16.23;8.02;;;;;;;;;;4935262;29;20035;-84
2022/08/04 07:08:18;;;;;;;16.58;7.82;;;;;;;;;;4920587;29;20035;-84
2022/08/04 07:10:43;;;;;;;15.27;7.60;;;;;;;;;;4920975;29;20039;-84
2022/08/04 07:13:09;;;;;;;14.07;7.40;;;;;;;;;;4934884;29;20107;-84
2022/08/04 07:15:34;;;;;;;16.30;7.13;;;;;;;;;;4938342;29;20053;-83
2022/08/04 07:18:03;;;;;;;20.42;8.02;;;;;;;;;;4921321;29;20027;-83
2022/08/04 07:20:28;;;;;;;12.48;6.93;;;;;;;;;;4912842;29;20063;-83
2022/08/04 07:22:54;;;;;;;18.13;6.35;;;;;;;;;;4919611;29;20059;-83
2022/08/04 07:25:19;;;;;;;15.85;6.00;;;;;;;;;;4951924;29;20059;-84
2022/08/04 07:27:45;;;;;;;16.75;5.60;;;;;;;;;;4919815;29;20039;-83
2022/08/04 07:30:11;;;;;;;19.17;6.90;;;;;;;;;;4935605;29;20051;-84
2022/08/04 07:32:36;;;;;;;35.47;7.47;;;;;;;;;;4920417;29;20421;-83
2022/08/04 07:35:03;;;;;;;19.67;7.03;;;;;;;;;;4919942;29;20031;-84
2022/08/04 07:37:28;;;;;;;20.73;5.70;;;;;;;;;;4904731;29;20035;-84
2022/08/04 07:39:54;;;;;;;9.98;4.57;;;;;;;;;;4918763;29;20461;-83
2022/08/04 07:42:20;;;;;;;14.52;4.60;;;;;;;;;;4903884;29;20084;-82
2022/08/04 07:44:45;;;;;;;10.50;4.25;;;;;;;;;;4903913;29;20067;-84
2022/08/04 07:47:11;;;;;;;11.55;5.07;;;;;;;;;;4918740;29;20043;-84
2022/08/04 07:49:36;;;;;;;15.70;5.03;;;;;;;;;;4919500;29;20152;-84
2022/08/04 07:52:02;;;;;;;14.68;4.07;;;;;;;;;;4919203;29;20054;-83
2022/08/04 07:54:27;;;;;;;14.30;4.25;;;;;;;;;;4933973;29;20106;-83
2022/08/04 07:56:53;;;;;;;10.23;4.20;;;;;;;;;;4918075;29;20516;-84
2022/08/04 07:59:18;;;;;;;18.30;4.63;;;;;;;;;;4919282;29;20163;-84
2022/08/04 08:01:44;;;;;;;11.75;3.75;;;;;;;;;;4919039;29;20024;-83
2022/08/04 08:04:10;;;;;;;11.43;4.72;;;;;;;;;;4919133;29;20024;-84
2022/08/04 08:06:36;;;;;;;8.95;3.67;;;;;;;;;;4919690;29;20039;-84
2022/08/04 08:09:10;;;;;;;13.10;4.30;;;;;;;;;;4915891;29;20032;-84
2022/08/04 08:11:35;;;;;;;14.27;5.43;;;;;;;;;;4913847;29;20063;-84
2022/08/04 08:14:01;;;;;;;10.27;4.40;;;;;;;;;;4915645;29;20198;-85
2022/08/04 08:16:26;;;;;;;12.02;4.28;;;;;;;;;;4897810;29;20094;-84
2022/08/04 08:18:51;;;;;;;15.70;4.28;;;;;;;;;;4933566;29;20031;-84
2022/08/04 08:21:20;;;;;;;11.10;4.15;;;;;;;;;;4902848;29;20365;-85
2022/08/04 08:23:46;;;;;;;9.75;4.95;;;;;;;;;;4887087;29;20164;-84
2022/08/04 08:26:11;;;;;;;11.77;3.47;;;;;;;;;;4935900;29;20031;-84
2022/08/04 08:28:37;;;;;;;12.50;4.05;;;;;;;;;;4918877;29;20038;-84
2022/08/04 08:31:02;;;;;;;10.77;3.58;;;;;;;;;;4917381;29;20027;-83
2022/08/04 08:33:27;;;;;;;11.90;3.70;;;;;;;;;;4918736;29;20019;-84
2022/08/04 08:36:19;;;;;;;20.10;4.13;;;;;;;;;;4949442;29;20064;-84
2022/08/04 08:39:01;;;;;;;13.93;3.78;;;;;;;;;;4921358;29;20044;-84
2022/08/04 08:41:50;;;;;;;13.45;4.68;;;;;;;;;;4935397;29;20036;-84
2022/08/04 08:44:50;;;;;;;9.98;3.22;;;;;;;;;;4934334;29;20027;-85
2022/08/04 08:47:49;;;;;;;13.60;3.67;;;;;;;;;;4935073;29;20060;-85
2022/08/04 08:50:18;;;;;;;11.80;4.15;;;;;;;;;;4916737;29;20415;-85
2022/08/04 08:53:19;;;;;;;15.98;3.40;;;;;;;;;;4935383;29;20039;-86
2022/08/04 08:55:51;;;;;;;10.75;3.35;;;;;;;;;;4910772;29;20043;-85
2022/08/04 08:58:26;;;;;;;10.07;4.18;;;;;;;;;;4934916;29;20040;-85
2022/08/04 09:01:09;;;;;;;12.77;3.88;;;;;;;;;;4934677;29;20028;-85
2022/08/04 09:04:17;;;;;;;12.98;4.15;;;;;;;;;;4930566;29;20031;-85
2022/08/04 09:06:53;;;;;;;15.27;4.35;;;;;;;;;;4887536;29;20063;-85
2022/08/04 09:09:48;;;;;;;9.48;3.17;;;;;;;;;;4918359;29;20038;-85
2022/08/04 09:12:32;;;;;;;12.65;3.65;;;;;;;;;;4917370;29;20042;-84
2022/08/04 09:15:16;;;;;;;17.25;4.88;;;;;;;;;;4949917;29;20030;-84
2022/08/04 09:17:46;;;;;;;13.95;4.20;;;;;;;;;;4949480;29;20027;-84
2022/08/04 09:20:21;;;;;;;16.98;4.47;;;;;;;;;;4900374;29;20040;-84
2022/08/04 09:23:14;;;;;;;10.00;3.83;;;;;;;;;;4940852;29;20500;-84
2022/08/04 09:25:46;;;;;;;14.45;4.45;;;;;;;;;;4915332;29;20109;-84
2022/08/04 09:28:42;;;;;;;15.02;3.80;;;;;;;;;;4916615;29;20063;-84
2022/08/04 09:31:20;;;;;;;14.98;4.30;;;;;;;;;;4901728;29;20040;-84
2022/08/04 09:33:50;;;;;;;14.70;5.07;;;;;;;;;;4894473;29;20114;-84
2022/08/04 09:36:40;;;;;;;16.00;6.35;;;;;;;;;;4917257;29;20447;-84
2022/08/04 09:39:17;;;;;;;15.23;7.00;;;;;;;;;;4933724;29;20058;-84
2022/08/04 09:42:16;;;;;;;17.25;6.30;;;;;;;;;;4916464;29;20047;-84
2022/08/04 09:44:58;;;;;;;27.10;6.97;;;;;;;;;;4933861;29;20036;-83
2022/08/04 09:47:25;;;;;;;14.27;7.05;;;;;;;;;;4926127;29;20039;-83
2022/08/04 09:50:08;;;;;;;16.90;8.23;;;;;;;;;;4916359;29;20051;-83
2022/08/04 09:52:56;;;;;;;15.75;7.22;;;;;;;;;;4886069;29;20373;-84
2022/08/04 09:55:33;;;;;;;13.63;6.78;;;;;;;;;;4925913;29;20027;-83
2022/08/04 09:58:14;;;;;;;16.73;6.40;;;;;;;;;;4885750;29;20090;-83
2022/08/04 10:00:44;;;;;;;10.50;6.15;;;;;;;;;;4932641;29;20063;-83
2022/08/04 10:03:10;;;;;;;12.38;6.00;;;;;;;;;;4916959;29;20036;-83
2022/08/04 10:06:00;;;;;;;15.02;7.47;;;;;;;;;;4933124;29;20034;-83
2022/08/04 10:08:53;;;;;;;13.57;6.95;;;;;;;;;;4931846;29;20051;-84
2022/08/04 10:11:32;;;;;;;12.68;6.10;;;;;;;;;;4917375;29;20040;-84
2022/08/04 10:14:01;;;;;;;18.48;5.85;;;;;;;;;;4917175;29;20031;-83
2022/08/04 10:16:53;;;;;;;11.63;5.85;;;;;;;;;;4898273;29;20399;-84
2022/08/04 10:19:26;;;;;;;11.93;6.05;;;;;;;;;;4918623;29;20519;-84
2022/08/04 10:22:11;;;;;;;13.38;4.88;;;;;;;;;;4920486;29;20031;-83
2022/08/04 10:24:54;;;;;;;15.35;4.78;;;;;;;;;;4953057;29;20114;-83
2022/08/04 10:27:47;;;;;;;7.75;4.15;;;;;;;;;;4931310;29;20027;-84
2022/08/04 10:30:12;;;;;;;12.02;5.22;;;;;;;;;;4952459;29;20500;-83
2022/08/04 10:33:12;;;;;;;14.10;4.72;;;;;;;;;;4889204;29;20027;-84
2022/08/04 10:35:49;;;;;;;11.88;4.65;;;;;;;;;;4928724;29;20048;-84
2022/08/04 10:38:19;;;;;;;12.02;4.95;;;;;;;;;;4905507;29;20517;-84
2022/08/04 10:40:57;;;;;;;14.10;4.15;;;;;;;;;;4889699;29;20054;-83
2022/08/04 10:43:45;;;;;;;12.13;3.75;;;;;;;;;;4932679;29;20025;-83
2022/08/04 10:46:16;;;;;;;19.40;4.50;;;;;;;;;;4944690;28;20071;-84
2022/08/04 10:49:03;;;;;;;11.75;2.80;;;;;;;;;;4951822;29;20456;-84
2022/08/04 10:51:41;;;;;;;13.35;3.55;;;;;;;;;;4935912;29;20071;-84
2022/08/04 10:54:26;;;;;;;10.23;3.28;;;;;;;;;;4921195;29;20037;-83
2022/08/04 10:56:58;;;;;;;11.73;2.63;;;;;;;;;;4932131;29;20051;-83
2022/08/04 10:59:27;;;;;;;8.30;2.70;;;;;;;;;;4905638;29;20023;-83
2022/08/04 11:01:55;;;;;;;17.48;3.15;;;;;;;;;;4932617;29;20366;-83
2022/08/04 11:04:24;;;;;;;10.52;2.83;;;;;;;;;;4920173;29;20480;-83
2022/08/04 11:06:51;;;;;;;12.70;3.60;;;;;;;;;;4916566;29;20067;-83
2022/08/04 11:09:17;;;;;;;41.20;7.55;;;;;;;;;;4911745;29;20024;-84
2022/08/04 11:11:48;;;;;;;12.13;3.70;;;;;;;;;;4904430;29;20508;-83
2022/08/04 11:14:22;;;;;;;11.68;3.38;;;;;;;;;;4904268;29;20046;-83
2022/08/04 11:16:53;;;;;;;17.05;4.00;;;;;;;;;;4920132;29;20377;-84
2022/08/04 11:19:38;;;;;;;18.00;3.28;;;;;;;;;;4937231;29;20038;-84
2022/08/04 11:22:07;;;;;;;8.23;2.90;;;;;;;;;;4930400;29;20462;-84
2022/08/04 11:25:01;;;;;;;15.43;2.80;;;;;;;;;;4920800;29;20027;-84
2022/08/04 11:27:28;;;;;;;8.85;2.50;;;;;;;;;;4936982;29;20056;-84
2022/08/04 11:30:02;;;;;;;15.88;3.53;;;;;;;;;;4903399;29;20126;-84
2022/08/04 11:32:41;;;;;;;11.68;3.20;;;;;;;;;;4951025;29;20042;-83
2022/08/04 11:35:10;;;;;;;13.75;4.10;;;;;;;;;;4935405;29;20156;-84
2022/08/04 11:37:44;;;;;;;8.80;3.17;;;;;;;;;;4929025;29;20028;-84
2022/08/04 11:40:35;;;;;;;15.27;3.28;;;;;;;;;;4936443;29;20070;-84
2022/08/04 11:43:01;;;;;;;10.45;3.15;;;;;;;;;;4919492;29;20032;-84
2022/08/04 11:45:32;;;;;;;9.65;3.78;;;;;;;;;;4888673;29;20169;-83
2022/08/04 11:48:00;;;;;;;13.68;2.22;;;;;;;;;;4918907;29;20040;-83
2022/08/04 11:50:37;;;;;;;9.43;2.47;;;;;;;;;;4935696;29;20395;-83
2022/08/04 11:53:02;;;;;;;6.18;1.80;;;;;;;;;;4934698;29;20050;-83
2022/08/04 11:55:27;;;;;;;5.65;1.73;;;;;;;;;;4905354;29;20027;-84
2022/08/04 11:57:53;;;;;;;7.28;1.75;;;;;;;;;;4920152;29;20090;-83
2022/08/04 12:00:19;;;;;;;7.47;1.90;;;;;;;;;;4919509;29;20023;-84
2022/08/04 12:02:54;;;;;;;6.15;2.05;;;;;;;;;;4935117;29;20080;-84
2022/08/04 12:05:23;;;;;;;6.85;2.05;;;;;;;;;;4929257;29;20035;-83
2022/08/04 12:08:26;;;;;;;5.85;1.50;;;;;;;;;;4903390;29;20035;-84
2022/08/04 12:11:24;;;;;;;6.53;1.73;;;;;;;;;;4919048;29;20035;-84
2022/08/04 12:14:14;;;;;;;6.53;1.58;;;;;;;;;;4947380;29;20047;-85
2022/08/04 12:17:03;;;;;;;5.13;1.77;;;;;;;;;;4946921;29;20026;-85
2022/08/04 12:19:52;;;;;;;11.98;2.25;;;;;;;;;;4943717;29;20106;-84
2022/08/04 12:22:21;;;;;;;9.60;2.60;;;;;;;;;;4935133;29;20254;-85
2022/08/04 12:25:01;;;;;;;6.07;2.25;;;;;;;;;;4903598;29;20060;-85
2022/08/04 12:27:33;;;;;;;7.40;2.53;;;;;;;;;;4932420;29;20065;-84
2022/08/04 12:29:59;;;;;;;5.88;2.58;;;;;;;;;;4934713;29;20028;-84
2022/08/04 12:32:29;;;;;;;8.35;2.20;;;;;;;;;;4935434;29;20104;-84
2022/08/04 12:35:13;;;;;;;11.32;2.35;;;;;;;;;;4918292;29;20031;-84
2022/08/04 12:37:55;;;;;;;9.07;2.95;;;;;;;;;;4935871;29;20040;-84
2022/08/04 12:40:25;;;;;;;10.55;2.80;;;;;;;;;;4899510;29;20095;-84
2022/08/04 12:43:02;;;;;;;5.22;2.00;;;;;;;;;;4882469;29;20084;-84
2022/08/04 12:45:28;;;;;;;7.63;2.15;;;;;;;;;;4912914;29;20457;-84
2022/08/04 12:47:56;;;;;;;6.35;1.88;;;;;;;;;;4897553;29;20028;-84
2022/08/04 12:50:21;;;;;;;5.15;1.90;;;;;;;;;;4930698;29;20056;-84
2022/08/04 12:52:48;;;;;;;5.40;1.60;;;;;;;;;;4868578;29;20036;-84
2022/08/04 12:55:14;;;;;;;7.80;1.90;;;;;;;;;;4899417;29;20024;-84
2022/08/04 12:57:40;;;;;;;8.32;1.83;;;;;;;;;;4912238;29;20043;-84
2022/08/04 13:00:06;;;;;;;5.97;1.92;;;;;;;;;;4878827;29;20020;-84
2022/08/04 13:02:37;;;;;;;3.67;1.58;;;;;;;;;;4899202;29;20031;-83
2022/08/04 13:05:04;;;;;;;7.00;1.45;;;;;;;;;;4866962;29;20398;-84
2022/08/04 13:07:35;;;;;;;3.50;1.40;;;;;;;;;;4881808;29;20043;-84
2022/08/04 13:10:09;;;;;;;3.47;1.02;;;;;;;;;;4914797;29;20590;-84
2022/08/04 13:12:34;;;;;;;6.75;1.63;;;;;;;;;;4898031;29;20035;-84
2022/08/04 13:15:11;;;;;;;3.88;1.40;;;;;;;;;;4883894;29;20031;-84
2022/08/04 13:17:58;;;;;;;4.95;1.17;;;;;;;;;;4929838;29;20032;-84
2022/08/04 13:20:31;;;;;;;3.60;1.30;;;;;;;;;;4915008;29;20511;-85
2022/08/04 13:23:04;;;;;;;4.55;1.73;;;;;;;;;;4896229;29;20085;-84
2022/08/04 13:25:30;;;;;;;4.78;1.33;;;;;;;;;;4892004;29;20153;-85
2022/08/04 13:27:56;;;;;;;2.88;1.10;;;;;;;;;;4914753;29;20032;-85
2022/08/04 13:30:23;;;;;;;7.50;1.58;;;;;;;;;;4911853;29;20135;-84
2022/08/04 13:32:52;;;;;;;9.32;1.48;;;;;;;;;;4912059;29;20055;-85
2022/08/04 13:35:17;;;;;;;3.53;1.30;;;;;;;;;;4899043;29;20032;-84
2022/08/04 13:37:43;;;;;;;2.63;1.10;;;;;;;;;;4898607;29;20036;-85
2022/08/04 13:40:10;;;;;;;5.70;1.65;;;;;;;;;;4929044;28;20080;-85
2022/08/04 13:42:36;;;;;;;4.53;1.55;;;;;;;;;;4898578;29;20383;-85
2022/08/04 13:45:01;;;;;;;3.30;1.48;;;;;;;;;;4899021;29;20119;-85
2022/08/04 13:47:32;;;;;;;5.55;1.40;;;;;;;;;;4916207;29;20039;-84
2022/08/04 13:50:19;;;;;;;5.60;1.45;;;;;;;;;;4914489;29;20338;-85
2022/08/04 13:52:44;;;;;;;6.38;1.60;;;;;;;;;;4897987;29;20042;-83
2022/08/04 13:55:30;;;;;;;4.18;1.30;;;;;;;;;;4898423;29;20032;-85
2022/08/04 13:58:07;;;;;;;3.90;1.40;;;;;;;;;;4899076;29;20492;-85
2022/08/04 14:00:40;;;;;;;4.15;1.40;;;;;;;;;;4912905;29;20055;-84
2022/08/04 14:03:07;;;;;;;8.27;1.50;;;;;;;;;;4929912;29;20392;-85
2022/08/04 14:05:32;;;;;;;3.83;1.50;;;;;;;;;;4882424;29;20027;-84
2022/08/04 14:08:16;;;;;;;6.53;2.10;;;;;;;;;;4881210;29;20052;-83
2022/08/04 14:10:41;;;;;;;5.70;1.92;;;;;;;;;;4928680;29;20425;-84
2022/08/04 14:13:07;;;;;;;5.95;1.63;;;;;;;;;;4929559;29;20123;-84
2022/08/04 14:15:36;;;;;;;4.65;1.20;;;;;;;;;;4897692;29;20460;-84
2022/08/04 14:18:24;;;;;;;6.00;1.40;;;;;;;;;;4898189;29;20048;-83
2022/08/04 14:21:02;;;;;;;5.47;1.40;;;;;;;;;;4920614;29;20028;-84
2022/08/04 14:23:28;;;;;;;4.63;1.42;;;;;;;;;;4929526;29;20036;-84
2022/08/04 14:25:53;;;;;;;7.95;1.45;;;;;;;;;;4866992;29;20028;-85
2022/08/04 14:28:28;;;;;;;5.65;1.85;;;;;;;;;;4881404;29;20460;-85
2022/08/04 14:31:14;;;;;;;5.10;1.55;;;;;;;;;;4912655;29;20028;-84
2022/08/04 14:33:40;;;;;;;5.75;1.85;;;;;;;;;;4896759;29;20016;-84
2022/08/04 14:36:06;;;;;;;5.30;1.70;;;;;;;;;;4881408;29;20088;-85
2022/08/04 14:38:43;;;;;;;4.22;1.45;;;;;;;;;;4900788;29;20056;-85
2022/08/04 14:41:09;;;;;;;7.13;1.60;;;;;;;;;;4930331;29;20043;-85
2022/08/04 14:43:55;;;;;;;5.45;1.67;;;;;;;;;;4948367;29;20042;-84
2022/08/04 14:46:21;;;;;;;6.75;1.80;;;;;;;;;;4931096;29;20156;-85
2022/08/04 14:48:59;;;;;;;6.25;1.48;;;;;;;;;;4916254;29;20028;-85
2022/08/04 14:51:25;;;;;;;4.88;1.67;;;;;;;;;;4947929;29;20646;-85
2022/08/04 14:53:50;;;;;;;5.68;1.48;;;;;;;;;;4924327;29;20027;-85
2022/08/04 14:56:15;;;;;;;5.78;1.50;;;;;;;;;;4900695;29;20325;-84
2022/08/04 14:58:41;;;;;;;5.53;1.60;;;;;;;;;;4901990;29;20062;-84
2022/08/04 15:01:07;;;;;;;8.23;1.67;;;;;;;;;;4897283;29;20127;-84
2022/08/04 15:03:33;;;;;;;6.75;1.50;;;;;;;;;;4929807;29;20060;-85
2022/08/04 15:05:59;;;;;;;4.40;1.10;;;;;;;;;;4935404;29;20039;-84
2022/08/04 15:08:25;;;;;;;7.45;1.90;;;;;;;;;;4902031;29;20476;-84
2022/08/04 15:10:51;;;;;;;5.63;1.50;;;;;;;;;;4919648;29;20119;-85
2022/08/04 15:13:17;;;;;;;5.93;1.58;;;;;;;;;;4935920;29;20090;-84
2022/08/04 15:15:42;;;;;;;4.20;1.60;;;;;;;;;;4919955;29;20106;-84
2022/08/04 15:18:08;;;;;;;5.63;1.63;;;;;;;;;;4935277;29;20598;-84